createdAt,value
2022-12-01T00:01:12.620Z,1.04
2022-12-01T00:03:39.313Z,1.13
2022-12-01T00:06:17.889Z,1.05
2022-12-01T00:09:06.044Z,1.06
2022-12-01T00:11:34.796Z,1.12
2022-12-01T00:14:01.994Z,1.18
2022-12-01T00:16:29.078Z,1.16
2022-12-01T00:18:56.855Z,1.17
2022-12-01T00:21:25.190Z,1.15
2022-12-01T00:23:54.233Z,1.18
2022-12-01T00:26:21.916Z,1.18
2022-12-01T00:28:49.897Z,1.18
2022-12-01T00:31:16.564Z,1.19
2022-12-01T00:33:43.233Z,1.22
2022-12-01T00:36:09.970Z,1.26
2022-12-01T00:38:37.021Z,1.25
2022-12-01T00:41:03.978Z,1.29
2022-12-01T00:43:30.523Z,1.27
2022-12-01T00:45:57.680Z,1.33
2022-12-01T00:48:24.604Z,1.20
2022-12-01T00:50:52.653Z,1.22
2022-12-01T00:53:19.488Z,1.27
2022-12-01T00:55:46.100Z,1.25
2022-12-01T00:58:12.678Z,1.26
2022-12-01T01:00:39.223Z,1.22
2022-12-01T01:03:08.864Z,1.22
2022-12-01T01:05:39.932Z,1.26
2022-12-01T01:08:08.453Z,1.29
2022-12-01T01:10:41.947Z,1.29
2022-12-01T01:13:08.874Z,1.27
2022-12-01T01:15:35.808Z,1.22
2022-12-01T01:18:02.659Z,1.30
2022-12-01T01:20:29.634Z,1.29
2022-12-01T01:22:56.208Z,1.30
2022-12-01T01:25:22.900Z,1.30
2022-12-01T01:27:50.240Z,1.31
2022-12-01T01:30:17.684Z,1.30
2022-12-01T01:32:44.230Z,1.33
2022-12-01T01:35:10.837Z,1.37
2022-12-01T01:37:37.416Z,1.36
2022-12-01T01:40:04.503Z,1.35
2022-12-01T01:42:30.990Z,1.33
2022-12-01T01:44:58.905Z,1.37
2022-12-01T01:47:35.046Z,1.41
2022-12-01T01:50:12.401Z,1.40
2022-12-01T01:52:44.589Z,1.39
2022-12-01T01:55:12.744Z,1.42
2022-12-01T01:57:40.505Z,1.44
2022-12-01T02:00:13.976Z,1.45
2022-12-01T02:02:45.791Z,1.46
2022-12-01T02:05:16.811Z,1.41
2022-12-01T02:07:43.833Z,1.46
2022-12-01T02:10:13.156Z,1.41
2022-12-01T02:12:53.632Z,1.47
2022-12-01T02:15:40.320Z,1.44
2022-12-01T02:18:20.738Z,1.45
2022-12-01T02:21:20.037Z,1.41
2022-12-01T02:24:05.327Z,1.42
2022-12-01T02:26:56.415Z,1.40
2022-12-01T02:29:46.877Z,1.41
2022-12-01T02:32:24.870Z,1.32
2022-12-01T02:34:54.281Z,1.28
2022-12-01T02:37:42.023Z,1.31
2022-12-01T02:40:26.689Z,1.30
2022-12-01T02:43:03.678Z,1.30
2022-12-01T02:45:37.258Z,1.30
2022-12-01T02:48:11.168Z,1.30
2022-12-01T02:50:39.916Z,1.31
2022-12-01T02:53:09.282Z,1.35
2022-12-01T02:55:35.926Z,1.41
2022-12-01T02:58:02.478Z,1.36
2022-12-01T03:00:30.938Z,1.37
2022-12-01T03:03:09.239Z,1.37
2022-12-01T03:06:10.976Z,1.31
2022-12-01T03:09:04.347Z,1.37
2022-12-01T03:11:42.165Z,1.36
2022-12-01T03:14:27.423Z,1.34
2022-12-01T03:16:54.678Z,1.31
2022-12-01T03:19:31.748Z,1.28
2022-12-01T03:22:16.774Z,1.26
2022-12-01T03:24:48.055Z,1.26
2022-12-01T03:27:18.706Z,1.27
2022-12-01T03:29:49.729Z,1.27
2022-12-01T03:32:29.514Z,1.30
2022-12-01T03:35:05.048Z,1.28
2022-12-01T03:37:49.614Z,1.25
2022-12-01T03:40:21.616Z,1.30
2022-12-01T03:42:52.680Z,1.32
2022-12-01T03:45:31.455Z,1.32
2022-12-01T03:47:58.171Z,1.32
2022-12-01T03:50:31.458Z,1.25
2022-12-01T03:53:23.723Z,1.26
2022-12-01T03:55:56.622Z,1.34
2022-12-01T03:58:29.607Z,1.32
2022-12-01T04:00:57.768Z,1.35
2022-12-01T04:03:26.019Z,1.31
2022-12-01T04:05:52.559Z,1.33
2022-12-01T04:08:19.111Z,1.30
2022-12-01T04:10:45.620Z,1.21
2022-12-01T04:13:22.086Z,1.24
2022-12-01T04:15:53.182Z,1.22
2022-12-01T04:18:20.320Z,1.12
2022-12-01T04:20:48.526Z,1.16
2022-12-01T04:23:35.645Z,1.27
2022-12-01T04:26:03.733Z,1.27
2022-12-01T04:28:30.434Z,1.30
2022-12-01T04:30:57.055Z,1.32
2022-12-01T04:33:23.690Z,1.40
2022-12-01T04:36:00.203Z,1.35
2022-12-01T04:38:30.601Z,1.33
2022-12-01T04:40:57.733Z,1.29
2022-12-01T04:43:24.272Z,1.29
2022-12-01T04:45:50.780Z,1.32
2022-12-01T04:48:17.253Z,1.30
2022-12-01T04:50:43.724Z,1.28
2022-12-01T04:53:10.243Z,1.31
2022-12-01T04:55:39.001Z,1.38
2022-12-01T04:58:06.059Z,1.39
2022-12-01T05:00:33.246Z,1.36
2022-12-01T05:03:00.540Z,1.34
2022-12-01T05:05:27.679Z,1.31
2022-12-01T05:07:54.350Z,1.28
2022-12-01T05:10:21.406Z,1.32
2022-12-01T05:12:47.992Z,1.32
2022-12-01T05:15:14.687Z,1.37
2022-12-01T05:17:41.448Z,1.33
2022-12-01T05:20:27.545Z,1.38
2022-12-01T05:23:05.221Z,1.38
2022-12-01T05:25:32.344Z,1.42
2022-12-01T05:27:58.882Z,1.47
2022-12-01T05:30:28.575Z,1.47
2022-12-01T05:32:55.462Z,1.44
2022-12-01T05:35:22.040Z,1.42
2022-12-01T05:37:48.541Z,1.38
2022-12-01T05:40:15.109Z,1.35
2022-12-01T05:42:41.610Z,1.39
2022-12-01T05:45:08.527Z,1.40
2022-12-01T05:47:34.981Z,1.36
2022-12-01T05:50:05.563Z,1.34
2022-12-01T05:52:34.902Z,1.39
2022-12-01T05:55:02.647Z,1.40
2022-12-01T05:57:29.332Z,1.38
2022-12-01T05:59:55.902Z,1.35
2022-12-01T06:02:22.794Z,1.35
2022-12-01T06:04:49.378Z,1.36
2022-12-01T06:07:15.919Z,1.41
2022-12-01T06:09:42.565Z,1.37
2022-12-01T06:12:09.096Z,1.39
2022-12-01T06:14:35.624Z,1.34
2022-12-01T06:17:02.589Z,1.31
2022-12-01T06:19:29.174Z,1.31
2022-12-01T06:21:55.677Z,1.37
2022-12-01T06:24:22.240Z,1.39
2022-12-01T06:26:48.826Z,1.33
2022-12-01T06:29:15.630Z,1.33
2022-12-01T06:31:42.764Z,1.36
2022-12-01T06:34:10.303Z,1.33
2022-12-01T06:36:36.902Z,1.33
2022-12-01T06:39:08.451Z,1.39
2022-12-01T06:41:34.989Z,1.37
2022-12-01T06:44:01.962Z,1.33
2022-12-01T06:46:28.920Z,1.31
2022-12-01T06:48:55.603Z,1.32
2022-12-01T06:51:22.602Z,1.30
2022-12-01T06:53:57.718Z,1.35
2022-12-01T06:56:27.456Z,1.34
2022-12-01T06:58:54.224Z,1.39
2022-12-01T07:01:21.741Z,2.41
2022-12-01T07:03:50.276Z,2.37
2022-12-01T07:06:17.990Z,2.08
2022-12-01T07:08:44.928Z,1.95
2022-12-01T07:11:13.820Z,1.80
2022-12-01T07:13:41.869Z,1.79
2022-12-01T07:16:09.489Z,1.82
2022-12-01T07:18:37.094Z,1.79
2022-12-01T07:21:07.114Z,1.81
2022-12-01T07:23:34.549Z,1.83
2022-12-01T07:26:06.036Z,1.76
2022-12-01T07:28:33.068Z,1.63
2022-12-01T07:31:12.892Z,1.71
2022-12-01T07:33:39.763Z,1.76
2022-12-01T07:36:07.224Z,1.90
2022-12-01T07:38:35.060Z,1.97
2022-12-01T07:41:16.116Z,1.97
2022-12-01T07:43:42.949Z,2.00
2022-12-01T07:46:20.584Z,2.07
2022-12-01T07:48:49.498Z,1.99
2022-12-01T07:51:19.178Z,1.99
2022-12-01T07:53:48.220Z,2.02
2022-12-01T07:56:15.364Z,2.05
2022-12-01T07:58:42.138Z,2.13
2022-12-01T08:01:14.751Z,2.12
2022-12-01T08:03:42.421Z,2.16
2022-12-01T08:06:10.033Z,2.25
2022-12-01T08:08:38.732Z,2.20
2022-12-01T08:11:07.781Z,2.24
2022-12-01T08:13:34.404Z,2.36
2022-12-01T08:16:05.137Z,2.37
2022-12-01T08:18:34.650Z,2.37
2022-12-01T08:21:01.376Z,2.49
2022-12-01T08:23:28.931Z,2.56
2022-12-01T08:25:57.544Z,2.40
2022-12-01T08:28:24.144Z,2.24
2022-12-01T08:30:50.754Z,2.32
2022-12-01T08:33:17.494Z,2.25
2022-12-01T08:35:44.003Z,2.21
2022-12-01T08:38:10.808Z,2.28
2022-12-01T08:40:37.349Z,2.41
2022-12-01T08:43:04.392Z,2.35
2022-12-01T08:45:30.933Z,2.35
2022-12-01T08:47:58.986Z,2.32
2022-12-01T08:50:27.281Z,2.49
2022-12-01T08:52:54.336Z,2.43
2022-12-01T08:55:21.985Z,2.55
2022-12-01T08:57:48.571Z,2.56
2022-12-01T09:00:16.068Z,2.59
2022-12-01T09:02:42.713Z,2.58
2022-12-01T09:05:09.625Z,2.50
2022-12-01T09:07:36.177Z,2.51
2022-12-01T09:10:02.894Z,2.84
2022-12-01T09:12:30.006Z,3.10
2022-12-01T09:14:56.591Z,3.22
2022-12-01T09:17:23.768Z,3.22
2022-12-01T09:19:50.661Z,3.28
2022-12-01T09:22:17.417Z,3.06
2022-12-01T09:24:43.933Z,2.85
2022-12-01T09:27:10.599Z,2.60
2022-12-01T09:29:37.060Z,2.56
2022-12-01T09:32:03.835Z,2.44
2022-12-01T09:34:30.391Z,2.38
2022-12-01T09:36:58.538Z,2.45
2022-12-01T09:39:25.749Z,2.38
2022-12-01T09:42:13.854Z,2.45
2022-12-01T09:44:53.099Z,2.47
2022-12-01T09:47:35.437Z,2.67
2022-12-01T09:50:16.436Z,2.73
2022-12-01T09:52:49.110Z,2.89
2022-12-01T09:55:19.067Z,3.06
2022-12-01T09:57:50.876Z,3.20
2022-12-01T10:00:24.268Z,3.26
2022-12-01T10:02:59.418Z,3.24
2022-12-01T10:05:31.523Z,3.24
2022-12-01T10:08:07.841Z,3.07
2022-12-01T10:10:42.920Z,3.04
2022-12-01T10:13:21.994Z,3.10
2022-12-01T10:15:54.460Z,3.05
2022-12-01T10:18:48.144Z,2.99
2022-12-01T10:21:25.372Z,3.09
2022-12-01T10:24:13.269Z,3.08
2022-12-01T10:26:55.016Z,3.18
2022-12-01T10:29:41.831Z,3.26
2022-12-01T10:32:18.101Z,3.43
2022-12-01T10:34:47.824Z,3.62
2022-12-01T10:37:20.319Z,3.60
2022-12-01T10:39:50.103Z,3.76
2022-12-01T10:42:16.679Z,3.71
2022-12-01T10:44:44.405Z,3.60
2022-12-01T10:47:22.302Z,3.65
2022-12-01T10:49:49.970Z,3.58
2022-12-01T10:52:41.799Z,3.46
2022-12-01T10:55:23.179Z,3.42
2022-12-01T10:57:50.563Z,3.51
2022-12-01T11:00:57.976Z,3.52
2022-12-01T11:03:24.500Z,3.51
2022-12-01T11:06:00.438Z,3.56
2022-12-01T11:08:39.090Z,3.61
2022-12-01T11:11:06.161Z,3.62
2022-12-01T11:13:36.406Z,3.72
2022-12-01T11:16:06.551Z,3.66
2022-12-01T11:18:36.997Z,3.73
2022-12-01T11:21:08.667Z,3.65
2022-12-01T11:23:37.398Z,3.52
2022-12-01T11:26:14.155Z,3.47
2022-12-01T11:28:53.122Z,3.64
2022-12-01T11:31:22.394Z,3.74
2022-12-01T11:33:49.393Z,3.79
2022-12-01T11:36:25.991Z,3.86
2022-12-01T11:38:58.061Z,3.90
2022-12-01T11:41:32.152Z,3.81
2022-12-01T11:44:04.147Z,3.80
2022-12-01T11:46:50.206Z,3.89
2022-12-01T11:49:29.573Z,3.96
2022-12-01T11:51:56.105Z,3.94
2022-12-01T11:54:26.044Z,3.88
2022-12-01T11:59:40.921Z,3.73
2022-12-01T12:02:32.914Z,3.82
2022-12-01T12:05:31.341Z,3.81
2022-12-01T12:07:57.885Z,3.74
2022-12-01T12:10:39.866Z,3.81
2022-12-01T12:13:12.293Z,3.64
2022-12-01T12:16:00.599Z,3.62
2022-12-01T12:18:48.927Z,3.82
2022-12-01T12:21:30.752Z,3.76
2022-12-01T12:24:09.199Z,3.78
2022-12-01T12:26:45.092Z,3.74
2022-12-01T12:29:29.955Z,3.70
2022-12-01T12:32:34.987Z,3.65
2022-12-01T12:35:19.817Z,3.73
2022-12-01T12:37:58.745Z,3.65
2022-12-01T12:40:56.031Z,3.68
2022-12-01T12:43:31.585Z,3.64
2022-12-01T12:46:01.374Z,3.44
2022-12-01T12:48:50.854Z,3.58
2022-12-01T12:51:32.276Z,3.60
2022-12-01T12:54:28.955Z,3.67
2022-12-01T12:57:02.251Z,3.55
2022-12-01T12:59:41.053Z,3.50
2022-12-01T13:02:26.885Z,3.39
2022-12-01T13:05:05.450Z,3.67
2022-12-01T13:07:46.239Z,3.55
2022-12-01T13:10:28.685Z,3.56
2022-12-01T13:13:01.689Z,3.60
2022-12-01T13:15:30.774Z,3.54
2022-12-01T13:18:04.104Z,3.49
2022-12-01T13:20:33.342Z,3.51
2022-12-01T13:23:02.401Z,3.53
2022-12-01T13:25:40.954Z,3.42
2022-12-01T13:28:17.407Z,3.51
2022-12-01T13:31:08.707Z,3.45
2022-12-01T13:33:37.361Z,3.45
2022-12-01T13:39:04.773Z,3.45
2022-12-01T13:41:39.635Z,3.42
2022-12-01T13:44:28.222Z,3.35
2022-12-01T13:47:09.967Z,3.31
2022-12-01T13:49:44.730Z,3.30
2022-12-01T13:52:23.794Z,3.38
2022-12-01T13:55:23.116Z,3.40
2022-12-01T13:58:13.235Z,3.44
2022-12-01T14:00:41.295Z,3.49
2022-12-01T14:03:20.236Z,3.49
2022-12-01T14:05:53.199Z,3.46
2022-12-01T14:08:30.842Z,3.42
2022-12-01T14:11:00.626Z,3.46
2022-12-01T14:13:28.697Z,3.46
2022-12-01T14:15:57.979Z,3.53
2022-12-01T14:18:44.295Z,3.45
2022-12-01T14:21:12.444Z,3.46
2022-12-01T14:23:58.928Z,3.57
2022-12-01T14:26:28.490Z,3.69
2022-12-01T14:28:54.966Z,4.46
2022-12-01T14:31:46.328Z,4.85
2022-12-01T14:34:19.219Z,4.56
2022-12-01T14:37:02.903Z,4.19
2022-12-01T14:39:33.791Z,4.03
2022-12-01T14:42:34.037Z,3.92
2022-12-01T14:45:04.030Z,3.95
2022-12-01T14:47:42.232Z,3.94
2022-12-01T14:50:30.099Z,3.84
2022-12-01T14:53:04.248Z,3.85
2022-12-01T14:55:42.076Z,3.78
2022-12-01T14:58:16.920Z,3.79
2022-12-01T15:01:08.931Z,3.83
2022-12-01T15:03:42.571Z,3.71
2022-12-01T15:06:10.384Z,3.50
2022-12-01T15:08:49.191Z,3.33
2022-12-01T15:11:27.663Z,3.21
2022-12-01T15:13:55.769Z,3.16
2022-12-01T15:16:24.911Z,3.20
2022-12-01T15:18:52.393Z,3.11
2022-12-01T15:21:29.797Z,3.05
2022-12-01T15:24:03.898Z,2.95
2022-12-01T15:26:36.313Z,2.96
2022-12-01T15:29:22.368Z,2.91
2022-12-01T15:31:51.730Z,2.87
2022-12-01T15:34:24.959Z,2.83
2022-12-01T15:36:52.912Z,2.81
2022-12-01T15:39:26.327Z,2.78
2022-12-01T15:41:54.322Z,2.73
2022-12-01T15:44:36.312Z,2.74
2022-12-01T15:47:31.015Z,2.73
2022-12-01T15:49:57.576Z,2.75
2022-12-01T15:52:24.660Z,2.76
2022-12-01T15:54:51.788Z,2.79
2022-12-01T15:57:21.012Z,2.72
2022-12-01T15:59:53.991Z,2.70
2022-12-01T16:02:20.664Z,2.71
2022-12-01T16:04:48.815Z,2.76
2022-12-01T16:07:15.805Z,2.75
2022-12-01T16:09:59.695Z,2.73
2022-12-01T16:12:36.278Z,2.72
2022-12-01T16:15:08.382Z,2.75
2022-12-01T16:17:47.160Z,2.76
2022-12-01T16:20:25.483Z,2.75
2022-12-01T16:23:00.003Z,2.74
2022-12-01T16:25:35.059Z,2.73
2022-12-01T16:28:03.475Z,2.70
2022-12-01T16:30:36.688Z,2.75
2022-12-01T16:33:27.581Z,2.71
2022-12-01T16:35:55.149Z,2.71
2022-12-01T16:38:24.545Z,2.69
2022-12-01T16:40:53.780Z,2.69
2022-12-01T16:43:22.634Z,2.71
2022-12-01T16:45:53.338Z,2.65
2022-12-01T16:48:20.409Z,2.62
2022-12-01T16:50:48.509Z,2.58
2022-12-01T16:53:15.902Z,2.58
2022-12-01T16:55:53.541Z,2.54
2022-12-01T16:58:20.368Z,2.56
2022-12-01T17:00:52.746Z,2.50
2022-12-01T17:03:22.437Z,2.54
2022-12-01T17:05:49.537Z,2.53
2022-12-01T17:08:17.103Z,2.52
2022-12-01T17:10:46.163Z,2.58
2022-12-01T17:13:13.380Z,2.61
2022-12-01T17:15:45.110Z,2.60
2022-12-01T17:18:12.525Z,2.62
2022-12-01T17:20:39.373Z,2.66
2022-12-01T17:23:06.505Z,2.70
2022-12-01T17:25:35.010Z,2.72
2022-12-01T17:28:01.571Z,2.78
2022-12-01T17:30:28.076Z,2.76
2022-12-01T17:32:54.657Z,2.76
2022-12-01T17:35:21.173Z,2.74
2022-12-01T17:37:47.672Z,2.75
2022-12-01T17:40:14.701Z,2.72
2022-12-01T17:42:45.561Z,2.71
2022-12-01T17:45:16.909Z,2.69
2022-12-01T17:47:43.453Z,2.62
2022-12-01T17:50:10.348Z,2.53
2022-12-01T17:52:37.452Z,2.50
2022-12-01T17:55:04.310Z,2.57
2022-12-01T17:57:32.224Z,2.60
2022-12-01T18:00:00.871Z,2.60
2022-12-01T18:02:28.096Z,2.62
2022-12-01T18:04:54.839Z,2.59
2022-12-01T18:13:51.380Z,2.63
2022-12-01T18:16:21.377Z,2.61
2022-12-01T18:18:49.019Z,2.63
2022-12-01T18:21:17.960Z,2.64
2022-12-01T18:24:02.759Z,2.66
2022-12-01T18:26:31.759Z,2.61
2022-12-01T18:29:16.051Z,2.66
2022-12-01T18:31:43.171Z,2.65
2022-12-01T18:34:11.211Z,2.69
2022-12-01T18:36:39.921Z,2.69
2022-12-01T18:39:08.347Z,2.67
2022-12-01T18:41:35.674Z,2.79
2022-12-01T18:44:02.683Z,2.75
2022-12-01T18:46:29.510Z,2.70
2022-12-01T19:10:21.282Z,2.51
2022-12-01T19:12:47.964Z,2.53
2022-12-01T19:15:14.499Z,2.46
2022-12-01T19:17:41.008Z,2.52
2022-12-01T19:20:08.117Z,2.50
2022-12-01T19:22:34.635Z,2.50
2022-12-01T19:25:01.101Z,2.55
2022-12-01T19:27:29.172Z,2.47
2022-12-01T19:29:55.700Z,2.46
2022-12-01T19:32:23.223Z,2.50
2022-12-01T19:34:49.994Z,2.51
2022-12-01T19:37:16.795Z,2.47
2022-12-01T19:39:43.302Z,2.43
2022-12-01T19:42:09.762Z,2.41
2022-12-01T19:44:36.342Z,2.43
2022-12-01T19:47:03.670Z,2.46
2022-12-01T19:49:30.444Z,2.38
2022-12-01T19:51:56.963Z,2.46
2022-12-01T19:54:23.467Z,2.44
2022-12-01T19:56:50.554Z,2.42
2022-12-01T19:59:17.111Z,2.43
2022-12-01T20:01:43.821Z,2.42
2022-12-01T20:04:10.528Z,2.44
2022-12-01T20:06:37.792Z,2.45
2022-12-01T20:09:06.707Z,2.45
2022-12-01T20:11:35.153Z,2.45
2022-12-01T20:14:03.460Z,2.44
2022-12-01T20:16:30.566Z,2.50
2022-12-01T20:19:01.368Z,2.48
2022-12-01T20:21:35.023Z,2.42
2022-12-01T20:24:07.172Z,2.42
2022-12-01T21:21:08.080Z,2.44
2022-12-01T21:23:34.707Z,2.44
2022-12-01T21:26:01.505Z,2.39
2022-12-01T22:30:33.170Z,2.23
2022-12-01T22:33:05.437Z,2.23
2022-12-01T22:35:44.874Z,2.25
2022-12-01T22:38:41.207Z,2.21
2022-12-01T22:41:15.999Z,2.21
2022-12-01T22:43:49.766Z,2.23
2022-12-01T22:46:20.835Z,2.24
2022-12-01T22:49:11.012Z,2.26
2022-12-01T22:51:41.176Z,2.23
2022-12-01T22:54:16.767Z,2.27
2022-12-01T22:56:46.446Z,2.26
2022-12-01T22:59:21.033Z,2.23
2022-12-01T23:02:06.253Z,2.23
2022-12-01T23:04:39.786Z,2.28
2022-12-01T23:07:35.998Z,2.24
2022-12-01T23:10:08.390Z,2.24
2022-12-01T23:12:36.382Z,2.20
